createdAt,value
2023-01-25T00:00:45.965Z,0
2023-01-25T00:01:55.098Z,0
2023-01-25T00:03:04.349Z,0
2023-01-25T00:04:13.486Z,0
2023-01-25T00:05:22.545Z,0
2023-01-25T00:06:31.862Z,0
2023-01-25T00:07:41.052Z,0
2023-01-25T00:08:50.212Z,0
2023-01-25T00:09:59.368Z,0
2023-01-25T00:11:08.543Z,0
2023-01-25T00:12:17.738Z,0
2023-01-25T00:13:26.700Z,0
2023-01-25T00:14:35.056Z,0
2023-01-25T00:15:44.219Z,0
2023-01-25T00:16:53.405Z,0
2023-01-25T00:18:02.598Z,0
2023-01-25T00:19:11.769Z,0
2023-01-25T00:20:20.910Z,0
2023-01-25T00:21:29.997Z,0
2023-01-25T00:22:38.305Z,0
2023-01-25T00:23:46.531Z,0
2023-01-25T00:24:54.520Z,0
2023-01-25T00:26:02.730Z,0
2023-01-25T00:27:11.067Z,0
2023-01-25T00:28:19.280Z,0
2023-01-25T00:29:27.458Z,0
2023-01-25T00:30:35.671Z,0
2023-01-25T00:31:44.702Z,0
2023-01-25T00:32:53.943Z,0
2023-01-25T00:34:02.992Z,0
2023-01-25T00:35:12.355Z,0
2023-01-25T00:36:21.485Z,0
2023-01-25T00:37:30.711Z,0
2023-01-25T00:38:39.844Z,0
2023-01-25T00:39:49.092Z,0
2023-01-25T00:40:58.260Z,0
2023-01-25T00:42:07.328Z,0
2023-01-25T00:43:16.495Z,0
2023-01-25T00:44:25.546Z,0
2023-01-25T00:45:33.741Z,0
2023-01-25T00:46:43.026Z,0
2023-01-25T00:47:52.319Z,0
2023-01-25T00:49:01.405Z,0
2023-01-25T00:50:10.596Z,0
2023-01-25T00:51:19.766Z,0
2023-01-25T00:53:38.169Z,0
2023-01-25T00:54:46.325Z,0
2023-01-25T00:55:54.327Z,0
2023-01-25T00:57:03.773Z,0
2023-01-25T00:58:12.844Z,0
2023-01-25T00:59:21.998Z,0
2023-01-25T01:00:31.214Z,0
2023-01-25T01:01:40.369Z,0
2023-01-25T01:02:49.600Z,0
2023-01-25T01:03:58.757Z,0
2023-01-25T01:05:07.715Z,0
2023-01-25T01:06:17.108Z,0
2023-01-25T01:07:26.185Z,0
2023-01-25T01:09:44.672Z,0
2023-01-25T01:10:52.709Z,0
2023-01-25T01:12:01.775Z,0
2023-01-25T01:13:11.111Z,0
2023-01-25T01:14:20.369Z,0
2023-01-25T01:15:29.459Z,0
2023-01-25T01:16:38.622Z,0
2023-01-25T01:17:47.769Z,0
2023-01-25T01:18:57.043Z,0
2023-01-25T01:20:05.189Z,0
2023-01-25T01:21:13.468Z,0
2023-01-25T01:22:21.598Z,0
2023-01-25T01:23:29.781Z,0
2023-01-25T01:24:38.930Z,0
2023-01-25T01:25:48.034Z,0
2023-01-25T01:26:56.303Z,0
2023-01-25T01:28:04.436Z,0
2023-01-25T01:29:13.491Z,0
2023-01-25T01:30:22.858Z,0
2023-01-25T01:31:31.835Z,0
2023-01-25T01:32:41.064Z,0
2023-01-25T01:33:50.193Z,0
2023-01-25T01:34:59.355Z,0
2023-01-25T01:36:08.549Z,0
2023-01-25T01:37:17.829Z,0
2023-01-25T01:38:27.063Z,0
2023-01-25T01:39:36.156Z,0
2023-01-25T01:40:45.458Z,0
2023-01-25T01:41:54.463Z,0
2023-01-25T01:43:02.789Z,0
2023-01-25T01:45:21.023Z,0
2023-01-25T01:46:30.276Z,0
2023-01-25T01:47:39.466Z,0
2023-01-25T01:48:48.442Z,0
2023-01-25T01:49:57.621Z,0
2023-01-25T01:51:06.940Z,0
2023-01-25T01:52:15.205Z,0
2023-01-25T01:53:23.321Z,0
2023-01-25T01:54:32.439Z,0
2023-01-25T01:55:41.515Z,0
2023-01-25T01:56:50.838Z,0
2023-01-25T01:58:00.048Z,0
2023-01-25T01:59:09.036Z,0
2023-01-25T02:00:18.214Z,0
2023-01-25T02:01:27.597Z,0
2023-01-25T02:02:36.548Z,0
2023-01-25T02:03:45.718Z,0
2023-01-25T02:04:54.912Z,0
2023-01-25T02:06:04.070Z,0
2023-01-25T02:07:13.242Z,0
2023-01-25T02:08:21.440Z,0
2023-01-25T02:09:30.604Z,0
2023-01-25T02:10:39.983Z,0
2023-01-25T02:11:49.088Z,0
2023-01-25T02:12:58.129Z,0
2023-01-25T02:14:07.472Z,0
2023-01-25T02:16:25.639Z,0
2023-01-25T02:17:35.026Z,0
2023-01-25T02:18:43.158Z,0
2023-01-25T02:19:51.396Z,0
2023-01-25T02:20:59.393Z,0
2023-01-25T02:22:07.668Z,0
2023-01-25T02:23:16.935Z,0
2023-01-25T02:24:24.954Z,0
2023-01-25T02:25:33.349Z,0
2023-01-25T02:26:42.318Z,0
2023-01-25T02:27:51.490Z,0
2023-01-25T02:29:00.698Z,0
2023-01-25T02:30:09.842Z,0
2023-01-25T02:31:19.162Z,0
2023-01-25T02:32:28.370Z,0
2023-01-25T02:33:37.511Z,0
2023-01-25T02:34:46.705Z,0
2023-01-25T02:35:55.951Z,0
2023-01-25T02:37:04.989Z,0
2023-01-25T02:38:14.052Z,0
2023-01-25T02:39:23.237Z,0
2023-01-25T02:40:31.609Z,0
2023-01-25T02:41:40.785Z,0
2023-01-25T02:42:49.947Z,0
2023-01-25T02:43:58.996Z,0
2023-01-25T02:45:08.225Z,0
2023-01-25T02:46:17.377Z,0
2023-01-25T02:47:26.713Z,0
2023-01-25T02:48:34.834Z,0
2023-01-25T02:49:43.898Z,0
2023-01-25T02:50:52.038Z,0
2023-01-25T02:52:00.285Z,0
2023-01-25T02:53:08.443Z,0
2023-01-25T02:54:17.722Z,0
2023-01-25T02:55:26.872Z,0
2023-01-25T02:56:36.091Z,0
2023-01-25T02:57:45.226Z,0
2023-01-25T02:58:54.261Z,0
2023-01-25T03:00:03.584Z,0
2023-01-25T03:01:12.762Z,0
2023-01-25T03:02:21.764Z,0
2023-01-25T03:03:30.939Z,0
2023-01-25T03:04:40.257Z,0
2023-01-25T03:05:49.460Z,0
2023-01-25T03:06:58.464Z,0
2023-01-25T03:08:06.837Z,0
2023-01-25T03:09:15.826Z,0
2023-01-25T03:10:25.005Z,0
2023-01-25T03:11:34.215Z,0
2023-01-25T03:12:43.515Z,0
2023-01-25T03:13:52.532Z,0
2023-01-25T03:15:01.787Z,0
2023-01-25T03:16:09.894Z,0
2023-01-25T03:17:18.109Z,0
2023-01-25T03:18:26.274Z,0
2023-01-25T03:19:34.584Z,0
2023-01-25T03:20:43.794Z,0
2023-01-25T03:21:52.805Z,0
2023-01-25T03:23:02.183Z,0
2023-01-25T03:24:11.288Z,0
2023-01-25T03:25:20.335Z,0
2023-01-25T03:26:29.793Z,0
2023-01-25T03:27:38.755Z,0
2023-01-25T03:28:47.915Z,0
2023-01-25T03:29:57.187Z,0
2023-01-25T03:31:06.333Z,0
2023-01-25T03:32:15.555Z,0
2023-01-25T03:33:24.649Z,0
2023-01-25T03:34:32.900Z,0
2023-01-25T03:35:41.926Z,0
2023-01-25T03:36:51.079Z,0
2023-01-25T03:38:00.445Z,0
2023-01-25T03:39:09.413Z,0
2023-01-25T03:40:18.597Z,0
2023-01-25T03:41:27.985Z,0
2023-01-25T03:42:36.053Z,0
2023-01-25T03:43:44.184Z,0
2023-01-25T03:44:53.454Z,0
2023-01-25T03:46:02.656Z,0
2023-01-25T03:47:11.777Z,0
2023-01-25T03:48:19.990Z,0
2023-01-25T03:49:28.226Z,0
2023-01-25T03:50:37.392Z,0
2023-01-25T03:51:46.457Z,0
2023-01-25T03:52:55.582Z,0
2023-01-25T03:54:04.737Z,0
2023-01-25T03:55:14.052Z,0
2023-01-25T03:56:23.090Z,0
2023-01-25T03:57:32.268Z,0
2023-01-25T03:58:41.607Z,0
2023-01-25T03:59:50.850Z,0
2023-01-25T04:00:59.950Z,0
2023-01-25T04:02:09.139Z,0
2023-01-25T04:03:18.236Z,0
2023-01-25T04:04:26.323Z,0
2023-01-25T04:05:35.680Z,0
2023-01-25T04:06:44.710Z,0
2023-01-25T04:07:53.831Z,0
2023-01-25T04:09:03.185Z,0
2023-01-25T04:10:12.202Z,0
2023-01-25T04:11:21.435Z,0
2023-01-25T04:12:29.695Z,0
2023-01-25T04:13:37.890Z,0
2023-01-25T04:14:45.930Z,0
2023-01-25T04:15:54.127Z,0
2023-01-25T04:17:03.442Z,0
2023-01-25T04:18:12.593Z,0
2023-01-25T04:19:21.789Z,0
2023-01-25T04:20:30.913Z,0
2023-01-25T04:21:40.171Z,0
2023-01-25T04:22:49.323Z,0
2023-01-25T04:23:58.338Z,0
2023-01-25T04:25:07.599Z,0
2023-01-25T04:26:16.691Z,0
2023-01-25T04:27:26.073Z,0
2023-01-25T04:28:35.025Z,0
2023-01-25T04:29:44.194Z,0
2023-01-25T04:30:52.384Z,0
2023-01-25T04:32:01.600Z,0
2023-01-25T04:33:10.906Z,0
2023-01-25T04:34:20.084Z,0
2023-01-25T04:35:29.236Z,0
2023-01-25T04:36:38.487Z,0
2023-01-25T04:37:47.647Z,0
2023-01-25T04:38:55.745Z,0
2023-01-25T04:40:03.900Z,0
2023-01-25T04:41:13.184Z,0
2023-01-25T04:42:22.276Z,0
2023-01-25T04:43:31.469Z,0
2023-01-25T04:44:40.641Z,0
2023-01-25T04:45:49.792Z,0
2023-01-25T04:46:59.150Z,0
2023-01-25T04:48:08.207Z,0
2023-01-25T04:49:17.258Z,0
2023-01-25T04:50:26.536Z,0
2023-01-25T04:51:35.568Z,0
2023-01-25T04:52:44.708Z,0
2023-01-25T04:53:54.064Z,0
2023-01-25T04:55:02.156Z,0
2023-01-25T04:56:11.385Z,0
2023-01-25T04:57:20.479Z,0
2023-01-25T04:58:29.722Z,0
2023-01-25T04:59:38.963Z,0
2023-01-25T05:00:47.965Z,0
2023-01-25T05:01:57.340Z,0
2023-01-25T05:03:05.485Z,0
2023-01-25T05:04:13.507Z,0
2023-01-25T05:05:21.867Z,0
2023-01-25T05:06:30.029Z,0
2023-01-25T05:07:39.055Z,0
2023-01-25T05:08:47.480Z,0
2023-01-25T05:09:56.425Z,0
2023-01-25T05:11:04.741Z,0
2023-01-25T05:12:13.830Z,0
2023-01-25T05:13:22.977Z,0
2023-01-25T05:14:31.349Z,0
2023-01-25T05:16:49.493Z,0
2023-01-25T05:17:58.857Z,0
2023-01-25T05:19:07.835Z,0
2023-01-25T05:20:17.017Z,0
2023-01-25T05:21:26.223Z,0
2023-01-25T05:22:35.358Z,0
2023-01-25T05:23:44.660Z,0
2023-01-25T05:24:53.875Z,0
2023-01-25T05:26:03.110Z,0
2023-01-25T05:27:12.230Z,0
2023-01-25T05:28:21.230Z,0
2023-01-25T05:29:29.632Z,0
2023-01-25T05:30:38.784Z,0
2023-01-25T05:31:47.759Z,0
2023-01-25T05:32:57.058Z,0
2023-01-25T05:34:05.354Z,0
2023-01-25T05:35:13.463Z,0
2023-01-25T05:36:22.635Z,0
2023-01-25T05:37:30.881Z,0
2023-01-25T05:38:39.073Z,0
2023-01-25T05:39:48.234Z,0
2023-01-25T05:40:57.336Z,0
2023-01-25T05:42:06.582Z,0
2023-01-25T05:43:15.662Z,0
2023-01-25T05:44:24.948Z,0
2023-01-25T05:45:34.044Z,0
2023-01-25T05:46:43.254Z,0
2023-01-25T05:47:52.421Z,0
2023-01-25T05:49:01.483Z,0
2023-01-25T05:50:10.734Z,0
2023-01-25T05:51:19.909Z,0
2023-01-25T05:52:29.083Z,0
2023-01-25T05:53:37.137Z,0
2023-01-25T05:54:46.434Z,0
2023-01-25T05:55:55.490Z,0
2023-01-25T05:57:04.834Z,0
2023-01-25T05:58:13.986Z,0
2023-01-25T05:59:23.179Z,0
2023-01-25T06:00:32.348Z,0
2023-01-25T06:01:40.365Z,0
2023-01-25T06:02:48.725Z,0
2023-01-25T06:03:56.891Z,0
2023-01-25T06:05:06.105Z,0
2023-01-25T06:06:14.381Z,0
2023-01-25T06:07:23.290Z,0
2023-01-25T06:08:32.459Z,0
2023-01-25T06:09:41.637Z,0
2023-01-25T06:10:50.999Z,0
2023-01-25T06:12:00.193Z,0
2023-01-25T06:13:09.319Z,0
2023-01-25T06:14:18.517Z,0
2023-01-25T06:15:27.567Z,0
2023-01-25T06:16:36.826Z,0
2023-01-25T06:17:45.997Z,0
2023-01-25T06:18:55.148Z,4
2023-01-25T06:20:04.208Z,0
2023-01-25T06:21:12.425Z,0
2023-01-25T06:22:21.695Z,0
2023-01-25T06:23:30.886Z,0
2023-01-25T06:24:40.086Z,0
2023-01-25T06:25:49.103Z,0
2023-01-25T06:26:58.401Z,0
2023-01-25T06:28:06.714Z,0
2023-01-25T06:29:14.756Z,0
2023-01-25T06:30:23.966Z,0
2023-01-25T06:31:33.169Z,0
2023-01-25T06:32:42.362Z,0
2023-01-25T06:33:51.510Z,0
2023-01-25T06:35:00.639Z,0
2023-01-25T06:36:09.819Z,0
2023-01-25T06:37:19.049Z,0
2023-01-25T06:38:28.170Z,0
2023-01-25T06:39:37.345Z,0
2023-01-25T06:40:46.498Z,0
2023-01-25T06:41:55.718Z,0
2023-01-25T06:43:04.820Z,3
2023-01-25T06:44:12.948Z,3
2023-01-25T06:45:22.255Z,3
2023-01-25T06:46:31.441Z,3
2023-01-25T06:47:40.557Z,3
2023-01-25T06:48:49.749Z,3
2023-01-25T06:49:58.937Z,3
2023-01-25T06:51:08.103Z,4
2023-01-25T06:52:16.372Z,4
2023-01-25T06:53:24.445Z,4
2023-01-25T06:54:32.774Z,4
2023-01-25T06:55:40.763Z,4
2023-01-25T06:56:49.874Z,9
2023-01-25T06:57:59.229Z,1
2023-01-25T06:59:08.418Z,1
2023-01-25T07:00:17.673Z,5
2023-01-25T07:01:26.747Z,1
2023-01-25T07:02:35.884Z,5
2023-01-25T07:03:44.929Z,10
2023-01-25T07:04:54.087Z,3
2023-01-25T07:06:03.421Z,6
2023-01-25T07:07:12.433Z,6
2023-01-25T07:08:21.841Z,10
2023-01-25T07:09:30.946Z,10
2023-01-25T07:10:38.978Z,19
2023-01-25T07:11:48.136Z,32
2023-01-25T07:12:57.489Z,32
2023-01-25T07:14:06.476Z,37
2023-01-25T07:15:15.787Z,33
2023-01-25T07:16:24.987Z,37
2023-01-25T07:17:34.001Z,38
2023-01-25T07:18:42.291Z,38
2023-01-25T07:19:50.390Z,34
2023-01-25T07:20:58.574Z,47
2023-01-25T07:22:07.020Z,44
2023-01-25T07:23:16.116Z,52
2023-01-25T07:24:25.292Z,61
2023-01-25T07:25:34.417Z,79
2023-01-25T07:26:43.544Z,79
2023-01-25T07:27:52.784Z,80
2023-01-25T07:29:02.008Z,89
2023-01-25T07:30:11.087Z,106
2023-01-25T07:31:20.297Z,111
2023-01-25T07:32:29.468Z,116
2023-01-25T07:33:38.535Z,113
2023-01-25T07:34:47.740Z,139
2023-01-25T07:35:56.984Z,136
2023-01-25T07:37:05.230Z,145
2023-01-25T07:38:14.238Z,150
2023-01-25T07:39:23.523Z,164
2023-01-25T07:40:32.664Z,177
2023-01-25T07:41:41.873Z,195
2023-01-25T07:42:50.901Z,188
2023-01-25T07:44:00.222Z,192
2023-01-25T07:45:08.294Z,210
2023-01-25T07:46:16.657Z,233
2023-01-25T07:47:24.658Z,238
2023-01-25T07:48:33.013Z,235
2023-01-25T07:49:42.180Z,244
2023-01-25T07:50:51.191Z,258
2023-01-25T07:52:00.525Z,276
2023-01-25T07:53:09.606Z,273
2023-01-25T07:54:18.705Z,282
2023-01-25T07:55:27.972Z,297
2023-01-25T07:56:37.051Z,294
2023-01-25T07:57:46.333Z,319
2023-01-25T07:58:55.631Z,345
2023-01-25T08:00:04.574Z,350
2023-01-25T08:01:13.747Z,360
2023-01-25T08:02:22.925Z,349
2023-01-25T08:03:31.197Z,363
2023-01-25T08:04:40.437Z,369
2023-01-25T08:05:49.569Z,386
2023-01-25T08:06:58.812Z,392
2023-01-25T08:08:07.856Z,393
2023-01-25T08:09:17.151Z,415
2023-01-25T08:10:26.156Z,420
2023-01-25T08:11:34.475Z,443
2023-01-25T08:12:42.683Z,453
2023-01-25T08:13:51.869Z,463
2023-01-25T08:15:00.881Z,473
2023-01-25T08:16:10.243Z,478
2023-01-25T08:17:19.408Z,491
2023-01-25T08:18:28.399Z,513
2023-01-25T08:19:37.744Z,531
2023-01-25T08:20:46.743Z,510
2023-01-25T08:21:56.087Z,529
2023-01-25T08:23:05.304Z,547
2023-01-25T08:24:14.422Z,552
2023-01-25T08:25:23.599Z,570
2023-01-25T08:26:32.598Z,584
2023-01-25T08:27:40.966Z,576
2023-01-25T08:28:49.972Z,598
2023-01-25T08:29:59.320Z,611
2023-01-25T08:31:08.522Z,632
2023-01-25T08:32:17.493Z,630
2023-01-25T08:33:26.665Z,623
2023-01-25T08:34:35.990Z,655
2023-01-25T08:35:44.212Z,660
2023-01-25T08:36:52.251Z,678
2023-01-25T08:38:00.540Z,692
2023-01-25T08:39:08.775Z,696
2023-01-25T08:40:17.950Z,688
2023-01-25T08:41:26.218Z,702
2023-01-25T08:42:34.174Z,716
2023-01-25T08:43:43.328Z,727
2023-01-25T08:44:52.687Z,733
2023-01-25T08:46:01.747Z,756
2023-01-25T08:47:11.015Z,778
2023-01-25T08:48:20.191Z,767
2023-01-25T08:49:29.392Z,786
2023-01-25T08:50:38.577Z,825
2023-01-25T08:51:47.679Z,826
2023-01-25T08:52:56.819Z,849
2023-01-25T08:54:06.107Z,848
2023-01-25T08:55:15.182Z,860
2023-01-25T08:56:24.378Z,909
2023-01-25T08:57:32.441Z,931
2023-01-25T08:58:41.657Z,941
2023-01-25T08:59:51.020Z,955
2023-01-25T09:01:00.064Z,973
2023-01-25T09:02:09.289Z,975
2023-01-25T09:03:18.422Z,990
2023-01-25T09:04:27.470Z,1013
2023-01-25T09:05:36.849Z,1040
2023-01-25T09:06:44.841Z,1079
2023-01-25T09:07:53.051Z,1071
2023-01-25T09:09:01.466Z,1089
2023-01-25T09:10:09.490Z,1106
2023-01-25T09:11:18.898Z,1087
2023-01-25T09:12:27.953Z,1089
2023-01-25T09:13:36.937Z,1136
2023-01-25T09:14:46.248Z,1140
2023-01-25T09:15:55.286Z,1140
2023-01-25T09:17:04.501Z,1140
2023-01-25T09:18:13.635Z,1136
2023-01-25T09:19:22.991Z,1137
2023-01-25T09:20:32.060Z,1134
2023-01-25T09:21:41.145Z,1145
2023-01-25T09:22:50.477Z,1168
2023-01-25T09:23:59.587Z,1183
2023-01-25T09:25:07.815Z,1200
2023-01-25T09:26:17.017Z,1212
2023-01-25T09:27:26.225Z,1208
2023-01-25T09:28:35.209Z,1183
2023-01-25T09:29:44.375Z,1202
2023-01-25T09:30:53.665Z,1216
2023-01-25T09:32:02.946Z,1235
2023-01-25T09:33:11.090Z,1265
2023-01-25T09:34:19.129Z,1269
2023-01-25T09:35:27.424Z,1253
2023-01-25T09:36:35.698Z,1245
2023-01-25T09:37:44.800Z,1260
2023-01-25T09:38:54.007Z,1254
2023-01-25T09:40:03.000Z,1287
2023-01-25T09:41:12.350Z,1313
2023-01-25T09:42:21.507Z,1332
2023-01-25T09:43:30.621Z,1343
2023-01-25T09:44:39.773Z,1350
2023-01-25T09:45:48.930Z,1374
2023-01-25T09:46:58.062Z,1397
2023-01-25T09:48:07.339Z,1417
2023-01-25T09:49:16.492Z,1455
2023-01-25T09:50:25.578Z,1487
2023-01-25T09:51:33.849Z,1524
2023-01-25T09:52:43.080Z,1536
2023-01-25T09:53:52.117Z,1582
2023-01-25T09:55:01.443Z,1610
2023-01-25T09:56:10.462Z,1626
2023-01-25T09:57:19.796Z,1657
2023-01-25T09:58:28.984Z,1684
2023-01-25T09:59:36.991Z,1685
2023-01-25T10:00:45.274Z,1683
2023-01-25T10:01:54.413Z,1718
2023-01-25T10:03:03.629Z,1727
2023-01-25T10:04:11.892Z,1715
2023-01-25T10:05:20.152Z,1737
2023-01-25T10:06:29.082Z,1747
2023-01-25T10:07:38.381Z,1768
2023-01-25T10:08:47.581Z,1740
2023-01-25T10:09:56.689Z,1755
2023-01-25T10:11:05.906Z,1775
2023-01-25T10:12:15.112Z,1822
2023-01-25T10:13:24.257Z,1831
2023-01-25T10:14:33.442Z,1843
2023-01-25T10:15:42.465Z,1847
2023-01-25T10:16:51.761Z,1847
2023-01-25T10:18:00.959Z,1836
2023-01-25T10:19:10.117Z,1836
2023-01-25T10:20:18.180Z,1867
2023-01-25T10:21:27.595Z,1897
2023-01-25T10:22:36.704Z,1899
2023-01-25T10:23:45.877Z,1883
2023-01-25T10:24:54.993Z,1827
2023-01-25T10:26:04.174Z,1823
2023-01-25T10:27:13.232Z,1829
2023-01-25T10:28:21.428Z,1829
2023-01-25T10:29:29.732Z,1847
2023-01-25T10:30:37.979Z,1798
2023-01-25T10:31:46.129Z,1869
2023-01-25T10:32:55.351Z,1878
2023-01-25T10:34:04.464Z,1880
2023-01-25T10:35:13.632Z,1899
2023-01-25T10:36:22.857Z,1939
2023-01-25T10:37:32.119Z,1914
2023-01-25T10:38:41.014Z,1948
2023-01-25T10:39:50.220Z,1953
2023-01-25T10:40:59.477Z,1948
2023-01-25T10:42:08.556Z,1952
2023-01-25T10:43:17.888Z,1935
2023-01-25T10:44:26.933Z,1942
2023-01-25T10:45:36.226Z,1962
2023-01-25T10:46:44.353Z,1974
2023-01-25T10:47:53.540Z,2035
2023-01-25T10:49:02.818Z,2049
2023-01-25T10:50:11.882Z,2079
2023-01-25T10:51:20.941Z,2077
2023-01-25T10:52:30.227Z,2038
2023-01-25T10:53:39.293Z,2026
2023-01-25T10:54:47.544Z,2035
2023-01-25T10:55:55.827Z,2083
2023-01-25T10:57:04.843Z,2085
2023-01-25T10:58:13.098Z,2057
2023-01-25T10:59:21.265Z,2091
2023-01-25T11:00:30.412Z,2113
2023-01-25T11:01:39.742Z,2121
2023-01-25T11:02:48.757Z,2143
2023-01-25T11:03:57.915Z,2084
2023-01-25T11:05:07.247Z,2015
2023-01-25T11:06:16.378Z,1996
2023-01-25T11:07:25.444Z,2003
2023-01-25T11:08:34.611Z,2071
2023-01-25T11:09:43.907Z,2063
2023-01-25T11:10:53.149Z,2048
2023-01-25T11:12:02.132Z,2067
2023-01-25T11:13:11.427Z,2083
2023-01-25T11:14:19.579Z,2088
2023-01-25T11:15:28.711Z,2160
2023-01-25T11:16:37.913Z,2218
2023-01-25T11:17:47.048Z,2208
2023-01-25T11:18:56.413Z,2231
2023-01-25T11:20:05.559Z,2259
2023-01-25T11:21:14.554Z,2307
2023-01-25T11:22:22.727Z,2440
2023-01-25T11:23:31.043Z,2572
2023-01-25T11:24:40.204Z,2615
2023-01-25T11:25:49.350Z,2577
2023-01-25T11:26:58.609Z,2506
2023-01-25T11:28:07.645Z,2488
2023-01-25T11:29:16.904Z,2466
2023-01-25T11:30:25.986Z,2450
2023-01-25T11:31:35.288Z,2473
2023-01-25T11:33:53.485Z,2494
2023-01-25T11:35:02.847Z,2451
2023-01-25T11:36:11.819Z,2443
2023-01-25T11:37:21.164Z,2456
2023-01-25T11:38:29.314Z,2454
2023-01-25T11:39:38.494Z,2496
2023-01-25T11:40:47.614Z,2418
2023-01-25T11:41:56.863Z,2356
2023-01-25T11:43:06.032Z,2292
2023-01-25T11:44:15.097Z,2272
2023-01-25T11:45:24.228Z,2284
2023-01-25T11:46:33.398Z,2245
2023-01-25T11:47:41.740Z,2245
2023-01-25T11:48:49.783Z,2216
2023-01-25T11:49:59.078Z,2236
2023-01-25T11:51:08.158Z,2264
2023-01-25T11:52:16.423Z,2250
2023-01-25T11:53:24.519Z,2251
2023-01-25T11:54:33.671Z,2323
2023-01-25T11:55:42.924Z,2403
2023-01-25T11:56:52.035Z,2422
2023-01-25T11:58:01.326Z,2466
2023-01-25T11:59:10.519Z,2499
2023-01-25T12:00:19.575Z,2507
2023-01-25T12:01:28.718Z,2574
2023-01-25T12:02:37.890Z,2558
2023-01-25T12:03:47.065Z,2475
2023-01-25T12:04:56.244Z,2470
2023-01-25T12:06:05.418Z,2475
2023-01-25T12:07:14.584Z,2490
2023-01-25T12:08:22.774Z,2487
2023-01-25T12:09:31.957Z,2507
2023-01-25T12:10:41.129Z,2509
2023-01-25T12:11:50.319Z,2477
2023-01-25T12:12:59.467Z,2471
2023-01-25T12:14:08.655Z,2413
2023-01-25T12:15:17.804Z,2409
2023-01-25T12:16:26.007Z,2451
2023-01-25T12:17:34.200Z,2544
2023-01-25T12:18:43.362Z,2591
2023-01-25T12:19:51.579Z,2610
2023-01-25T12:20:59.753Z,2589
2023-01-25T12:22:08.945Z,2533
2023-01-25T12:23:18.095Z,2510
2023-01-25T12:24:27.266Z,2482
2023-01-25T12:25:36.448Z,2460
2023-01-25T12:26:45.611Z,2433
2023-01-25T12:27:54.791Z,2428
2023-01-25T12:29:04.065Z,2443
2023-01-25T12:30:13.135Z,2396
2023-01-25T12:31:22.313Z,2379
2023-01-25T12:32:31.487Z,2436
2023-01-25T12:33:40.656Z,2490
2023-01-25T12:34:49.830Z,2514
2023-01-25T12:35:58.010Z,2471
2023-01-25T12:38:16.359Z,2316
2023-01-25T12:39:25.534Z,2256
2023-01-25T12:40:34.711Z,2201
2023-01-25T12:41:43.881Z,2133
2023-01-25T12:42:53.049Z,2119
2023-01-25T12:44:02.225Z,2139
2023-01-25T12:45:10.458Z,2108
2023-01-25T12:46:18.611Z,2078
2023-01-25T12:47:27.793Z,2070
2023-01-25T12:48:36.984Z,2112
2023-01-25T12:49:45.156Z,2107
2023-01-25T12:50:53.408Z,2046
2023-01-25T12:52:02.521Z,2015
2023-01-25T12:53:11.686Z,1991
2023-01-25T12:54:20.865Z,1997
2023-01-25T12:55:30.046Z,2045
2023-01-25T12:56:39.237Z,2040
2023-01-25T12:57:47.410Z,2032
2023-01-25T12:58:56.587Z,2043
2023-01-25T13:00:05.751Z,2022
2023-01-25T13:01:14.935Z,2024
2023-01-25T13:02:24.094Z,2031
2023-01-25T13:03:33.264Z,2069
2023-01-25T13:04:42.447Z,2093
2023-01-25T13:05:51.671Z,2084
2023-01-25T13:07:00.791Z,2071
2023-01-25T13:08:09.960Z,2055
2023-01-25T13:09:19.147Z,2009
2023-01-25T13:10:28.306Z,2032
2023-01-25T13:11:37.512Z,2132
2023-01-25T13:12:45.681Z,2204
2023-01-25T13:13:53.869Z,2178
2023-01-25T13:15:02.076Z,2180
2023-01-25T13:16:10.270Z,2173
2023-01-25T13:17:18.447Z,2142
2023-01-25T13:18:27.715Z,2131
2023-01-25T13:19:36.788Z,2165
2023-01-25T13:20:45.973Z,2148
2023-01-25T13:21:55.145Z,2035
2023-01-25T13:23:04.309Z,1952
2023-01-25T13:24:13.483Z,1906
2023-01-25T13:25:22.806Z,1897
2023-01-25T13:26:31.834Z,1896
2023-01-25T13:27:41.021Z,1893
2023-01-25T13:28:50.173Z,1845
2023-01-25T13:29:59.347Z,1810
2023-01-25T13:31:08.508Z,1817
2023-01-25T13:32:16.739Z,1791
2023-01-25T13:33:25.943Z,1727
2023-01-25T13:34:35.064Z,1694
2023-01-25T13:35:44.234Z,1732
2023-01-25T13:36:53.390Z,1714
2023-01-25T13:38:02.649Z,1727
2023-01-25T13:39:11.759Z,1758
2023-01-25T13:40:19.955Z,1730
2023-01-25T13:41:28.191Z,1724
2023-01-25T13:42:37.328Z,1701
2023-01-25T13:43:46.684Z,1649
2023-01-25T13:44:55.680Z,1577
2023-01-25T13:46:04.822Z,1532
2023-01-25T13:47:13.999Z,1500
2023-01-25T13:48:23.193Z,1489
2023-01-25T13:49:32.351Z,1456
2023-01-25T13:50:41.717Z,1431
2023-01-25T13:51:50.712Z,1399
2023-01-25T13:52:59.943Z,1383
2023-01-25T13:54:09.206Z,1329
2023-01-25T13:55:18.363Z,1299
2023-01-25T13:56:26.608Z,1263
2023-01-25T13:57:35.728Z,1239
2023-01-25T13:58:44.794Z,1205
2023-01-25T13:59:53.925Z,1180
2023-01-25T14:01:03.288Z,1201
2023-01-25T14:02:12.430Z,1176
2023-01-25T14:03:21.611Z,1177
2023-01-25T14:04:29.686Z,1228
2023-01-25T14:05:37.884Z,1232
2023-01-25T14:06:46.157Z,1202
2023-01-25T14:07:54.216Z,1176
2023-01-25T14:09:02.605Z,1211
2023-01-25T14:10:10.598Z,1208
2023-01-25T14:11:19.778Z,1187
2023-01-25T14:12:28.996Z,1194
2023-01-25T14:13:38.124Z,1173
2023-01-25T14:14:47.284Z,1177
2023-01-25T14:15:56.480Z,1189
2023-01-25T14:17:05.742Z,1197
2023-01-25T14:18:14.834Z,1184
2023-01-25T14:19:23.975Z,1163
2023-01-25T14:20:33.153Z,1158
2023-01-25T14:21:42.331Z,1179
2023-01-25T14:22:51.505Z,1150
2023-01-25T14:24:00.680Z,1099
2023-01-25T14:26:18.056Z,1017
2023-01-25T14:27:27.210Z,996
2023-01-25T14:28:36.408Z,1002
2023-01-25T14:29:45.561Z,995
2023-01-25T14:30:54.738Z,972
2023-01-25T14:32:03.897Z,937
2023-01-25T14:33:13.076Z,899
2023-01-25T14:34:21.410Z,874
2023-01-25T14:35:29.454Z,880
2023-01-25T14:36:38.667Z,891
2023-01-25T14:37:47.810Z,908
2023-01-25T14:38:56.028Z,920
2023-01-25T14:40:04.187Z,923
2023-01-25T14:41:13.378Z,921
2023-01-25T14:42:22.711Z,933
2023-01-25T14:43:31.782Z,900
2023-01-25T14:44:40.919Z,881
2023-01-25T14:45:50.063Z,855
2023-01-25T14:48:08.394Z,831
2023-01-25T14:49:17.568Z,821
2023-01-25T14:50:26.747Z,807
2023-01-25T14:51:35.915Z,784
2023-01-25T14:52:45.148Z,786
2023-01-25T14:53:54.265Z,778
2023-01-25T14:55:02.725Z,754
2023-01-25T14:56:11.621Z,734
2023-01-25T14:57:20.831Z,705
2023-01-25T14:58:30.001Z,661
2023-01-25T14:59:39.176Z,621
2023-01-25T15:00:48.322Z,607
2023-01-25T15:01:57.487Z,602
2023-01-25T15:03:06.677Z,571
2023-01-25T15:04:14.870Z,568
2023-01-25T15:05:23.109Z,571
2023-01-25T15:06:32.229Z,566
2023-01-25T15:07:41.391Z,561
2023-01-25T15:08:50.581Z,539
2023-01-25T15:09:59.737Z,518
2023-01-25T15:11:08.939Z,505
2023-01-25T15:12:18.080Z,501
2023-01-25T15:13:27.274Z,514
2023-01-25T15:14:36.445Z,550
2023-01-25T15:15:45.608Z,530
2023-01-25T15:16:54.787Z,485
2023-01-25T15:18:03.956Z,462
2023-01-25T15:19:13.139Z,444
2023-01-25T15:20:21.330Z,443
2023-01-25T15:21:30.526Z,442
2023-01-25T15:22:39.673Z,439
2023-01-25T15:23:48.901Z,411
2023-01-25T15:24:58.014Z,388
2023-01-25T15:26:07.184Z,370
2023-01-25T15:27:16.359Z,339
2023-01-25T15:28:24.574Z,334
2023-01-25T15:29:32.889Z,317
2023-01-25T15:30:40.937Z,329
2023-01-25T15:31:49.155Z,323
2023-01-25T15:32:57.320Z,297
2023-01-25T15:34:06.505Z,279
2023-01-25T15:35:14.717Z,266
2023-01-25T15:36:23.874Z,252
2023-01-25T15:37:33.092Z,256
2023-01-25T15:38:42.237Z,256
2023-01-25T15:39:51.375Z,256
2023-01-25T15:41:00.549Z,232
2023-01-25T15:42:09.718Z,236
2023-01-25T15:43:18.896Z,226
2023-01-25T15:44:28.076Z,220
2023-01-25T15:45:37.258Z,206
2023-01-25T15:46:46.417Z,192
2023-01-25T15:47:55.587Z,195
2023-01-25T15:49:04.758Z,168
2023-01-25T15:50:12.951Z,168
2023-01-25T15:51:22.126Z,154
2023-01-25T15:52:31.302Z,140
2023-01-25T15:54:49.653Z,113
2023-01-25T15:55:58.832Z,121
2023-01-25T15:57:07.988Z,116
2023-01-25T15:58:16.188Z,98
2023-01-25T15:59:24.381Z,89
2023-01-25T16:00:32.582Z,79
2023-01-25T16:01:40.790Z,88
2023-01-25T16:02:49.935Z,62
2023-01-25T16:03:59.101Z,57
2023-01-25T16:05:08.305Z,49
2023-01-25T16:06:17.460Z,40
2023-01-25T16:07:26.648Z,36
2023-01-25T16:08:35.789Z,40
2023-01-25T16:09:45.118Z,31
2023-01-25T16:10:54.148Z,26
2023-01-25T16:12:03.338Z,30
2023-01-25T16:13:12.514Z,26
2023-01-25T16:14:21.714Z,21
2023-01-25T16:15:30.875Z,16
2023-01-25T16:16:39.030Z,9
2023-01-25T16:17:48.207Z,6
2023-01-25T16:18:57.453Z,15
2023-01-25T16:20:06.661Z,23
2023-01-25T16:21:15.723Z,18